Terminal Aerodrome Forecast
Issued by NWS

Home | Current Version | Previous Version | Text Only | Print | Product List | Glossary On
Versions: 1 2 3 4 5 6 7 8 9 10 11 12 13 14 15 16 17 18 19
000
FTUS41 KGYX 011742
TAFRKD
TAF
KRKD 011742Z 0118/0218 29011G19KT P6SM SCT200
     FM020000 33006KT P6SM BKN200
     FM020800 05007KT P6SM OVC040
     FM021200 07011G20KT 2SM -SN BR OVC010
      AMD LTD TO CLD VIS AND WIND=

USA.gov is the U.S. government's official web portal to all federal, state and local government web resources and services.